Time;durP1;ratioP1;P1;durP2;ratioP2;P2;SDS_P1;SDS_P2;PMS_P1;PMS_P2;Temp;Humidity;BMP_temperature;BMP_pressure;BME280_temperature;BME280_humidity;BME280_pressure;Samples;Min_cycle;Max_cycle;Signal;HPM_P1;HPM_P2
2022/10/02 00:02:27;;;;;;;20.02;5.53;;;11.60;99.90;;;;;;5063045;28;20074;-63
2022/10/02 00:05:02;;;;;;;18.27;4.65;;;11.50;99.90;;;;;;5046309;28;20513;-62
2022/10/02 00:07:40;;;;;;;14.63;4.57;;;11.50;99.90;;;;;;5071378;28;20044;-62
2022/10/02 00:10:15;;;;;;;15.68;5.78;;;11.40;99.90;;;;;;5062766;28;20040;-62
2022/10/02 00:12:41;;;;;;;20.02;6.50;;;11.30;99.90;;;;;;5048277;28;20114;-62
2022/10/02 00:15:21;;;;;;;15.48;5.43;;;11.30;99.90;;;;;;5065997;28;20044;-60
2022/10/02 00:17:52;;;;;;;13.23;3.78;;;11.40;99.90;;;;;;5066341;28;20045;-62
2022/10/02 00:20:27;;;;;;;11.75;3.80;;;11.30;99.90;;;;;;5066550;28;20098;-62
2022/10/02 00:23:10;;;;;;;10.25;2.58;;;11.40;99.90;;;;;;5065744;28;20062;-61
2022/10/02 00:25:57;;;;;;;9.15;2.25;;;11.50;99.90;;;;;;5066217;28;20052;-62
2022/10/02 00:28:50;;;;;;;9.20;2.05;;;11.60;99.90;;;;;;5066742;28;20048;-63
2022/10/02 00:31:32;;;;;;;11.88;2.03;;;11.40;99.90;;;;;;5066136;28;20053;-62
2022/10/02 00:34:04;;;;;;;10.90;2.15;;;11.50;99.90;;;;;;5048351;28;20077;-61
2022/10/02 00:36:45;;;;;;;10.10;2.95;;;11.60;99.90;;;;;;5066152;28;20153;-61
2022/10/02 00:39:41;;;;;;;8.82;2.22;;;11.70;99.90;;;;;;5065390;28;20051;-63
2022/10/02 00:42:30;;;;;;;10.57;2.95;;;11.50;99.90;;;;;;5030622;28;20045;-63
2022/10/02 00:45:13;;;;;;;9.77;3.03;;;11.50;99.90;;;;;;5065537;28;20055;-63
2022/10/02 00:48:10;;;;;;;14.48;3.70;;;11.50;99.90;;;;;;5065852;28;20056;-62
2022/10/02 00:50:50;;;;;;;14.68;4.95;;;11.60;99.90;;;;;;5066066;28;20040;-62
2022/10/02 00:53:40;;;;;;;14.57;4.82;;;11.50;99.90;;;;;;5064374;28;20784;-62
2022/10/02 00:56:31;;;;;;;11.15;5.30;;;11.50;99.90;;;;;;5048081;28;20151;-62
2022/10/02 00:59:19;;;;;;;16.92;7.65;;;11.50;99.90;;;;;;5065748;28;20080;-61
2022/10/02 01:02:13;;;;;;;19.42;7.88;;;11.40;99.90;;;;;;5010330;28;20084;-63
2022/10/02 01:04:39;;;;;;;20.50;7.82;;;11.40;99.90;;;;;;5065475;28;20056;-62
2022/10/02 01:07:08;;;;;;;17.48;6.35;;;11.50;99.90;;;;;;5075310;28;20041;-62
2022/10/02 01:09:35;;;;;;;16.23;6.03;;;11.50;99.90;;;;;;5064218;28;20446;-61
2022/10/02 01:12:01;;;;;;;17.15;4.80;;;11.30;99.90;;;;;;5065609;28;20086;-62
2022/10/02 01:14:38;;;;;;;14.30;4.97;;;11.40;99.90;;;;;;5065933;28;20050;-63
2022/10/02 01:17:17;;;;;;;21.27;4.82;;;11.20;99.90;;;;;;5065540;28;20076;-63
2022/10/02 01:19:43;;;;;;;16.45;4.65;;;11.40;99.90;;;;;;5066146;28;20086;-62
2022/10/02 01:22:27;;;;;;;18.40;5.10;;;11.30;99.90;;;;;;5046841;28;20049;-61
2022/10/02 01:24:56;;;;;;;16.63;4.45;;;11.00;99.90;;;;;;5066098;28;20044;-62
2022/10/02 01:27:23;;;;;;;19.70;5.38;;;11.00;99.90;;;;;;5064957;28;20046;-66
2022/10/02 01:29:58;;;;;;;17.40;4.53;;;11.00;99.90;;;;;;5065585;28;20422;-62
2022/10/02 01:32:26;;;;;;;15.98;4.68;;;10.90;99.90;;;;;;5064919;28;20044;-63
2022/10/02 01:34:53;;;;;;;16.23;4.57;;;11.10;99.90;;;;;;5064977;28;20044;-61
2022/10/02 01:37:21;;;;;;;15.95;4.47;;;10.90;99.90;;;;;;5064753;28;20044;-62
2022/10/02 01:39:47;;;;;;;14.73;4.22;;;11.00;99.90;;;;;;5046847;28;20131;-62
2022/10/02 01:42:14;;;;;;;17.35;4.60;;;11.10;99.90;;;;;;5064492;28;20071;-62
2022/10/02 01:44:42;;;;;;;20.27;5.00;;;10.80;99.90;;;;;;5047226;28;20049;-63
2022/10/02 01:47:11;;;;;;;16.58;4.63;;;11.00;99.90;;;;;;5064760;28;20702;-61
2022/10/02 01:50:16;;;;;;;19.75;5.38;;;10.80;99.90;;;;;;5064415;28;20044;-60
2022/10/02 01:53:06;;;;;;;13.27;5.23;;;10.70;99.90;;;;;;5063622;28;20050;-62
2022/10/02 01:55:39;;;;;;;20.20;5.18;;;10.60;99.90;;;;;;5065341;28;20641;-61
2022/10/02 01:58:18;;;;;;;17.02;4.65;;;10.80;99.90;;;;;;5046158;28;20049;-61
2022/10/02 02:01:09;;;;;;;20.45;5.07;;;10.60;99.90;;;;;;5064682;28;20041;-62
2022/10/02 02:03:38;;;;;;;17.38;5.22;;;10.70;99.90;;;;;;5064386;28;20078;-61
2022/10/02 02:06:17;;;;;;;20.13;5.22;;;10.70;99.90;;;;;;5071185;28;20658;-63
2022/10/02 02:08:52;;;;;;;17.80;4.10;;;10.70;99.90;;;;;;5065832;28;20198;-63
2022/10/02 02:11:19;;;;;;;;;;;10.70;99.90;;;;;;5064838;28;20065;-62
2022/10/02 02:14:04;;;;;;;17.90;4.78;;;10.50;99.90;;;;;;5064559;28;19924;-62
2022/10/02 02:16:38;;;;;;;17.57;4.97;;;10.50;99.90;;;;;;5046996;28;20059;-63
2022/10/02 02:19:23;;;;;;;19.33;5.05;;;10.40;99.90;;;;;;5126056;23;20087;-62
2022/10/02 02:22:23;;;;;;;17.40;4.53;;;10.40;99.90;;;;;;5028964;28;20091;-62
2022/10/02 02:25:02;;;;;;;14.45;3.47;;;10.50;99.90;;;;;;5025097;28;20045;-63
2022/10/02 02:27:33;;;;;;;15.43;4.32;;;10.40;99.90;;;;;;5025231;28;20118;-62
2022/10/02 02:30:08;;;;;;;14.93;3.72;;;10.40;99.90;;;;;;5024701;28;20049;-61
2022/10/02 02:32:36;;;;;;;14.95;4.22;;;10.50;99.90;;;;;;5024365;28;20102;-62
2022/10/02 02:35:11;;;;;;;14.32;4.32;;;10.50;99.90;;;;;;5023973;28;20488;-62
2022/10/02 02:37:39;;;;;;;14.13;3.75;;;10.40;99.90;;;;;;5023481;28;20033;-61
2022/10/02 02:40:18;;;;;;;18.65;3.65;;;10.30;99.90;;;;;;5023968;28;20423;-62
2022/10/02 02:43:09;;;;;;;14.90;3.63;;;10.40;99.90;;;;;;5023863;28;20042;-63
2022/10/02 02:45:44;;;;;;;14.93;3.63;;;10.30;99.90;;;;;;5024755;28;20046;-62
2022/10/02 02:48:26;;;;;;;14.95;3.97;;;10.40;99.90;;;;;;5024240;28;20049;-60
2022/10/02 02:50:58;;;;;;;15.05;3.50;;;10.30;99.90;;;;;;5023859;28;20034;-63
2022/10/02 02:53:45;;;;;;;17.25;3.97;;;10.40;99.90;;;;;;5022875;28;20045;-62
2022/10/02 02:56:14;;;;;;;11.77;3.67;;;10.30;99.90;;;;;;5023337;28;20049;-62
2022/10/02 02:59:06;;;;;;;19.15;3.60;;;10.20;99.90;;;;;;5023589;28;20037;-62
2022/10/02 03:01:32;;;;;;;10.77;3.30;;;10.20;99.90;;;;;;5015910;28;20049;-62
2022/10/02 03:03:58;;;;;;;12.00;3.72;;;10.30;99.90;;;;;;5022853;28;20725;-63
2022/10/02 03:06:36;;;;;;;12.68;3.53;;;10.10;99.90;;;;;;5017763;28;21032;-62
2022/10/02 03:09:09;;;;;;;17.95;4.10;;;10.10;99.90;;;;;;5002805;28;20091;-61
2022/10/02 03:12:03;;;;;;;15.50;3.83;;;10.20;99.90;;;;;;4986044;28;20104;-63
2022/10/02 03:14:32;;;;;;;13.73;3.53;;;10.20;99.90;;;;;;5003263;28;20376;-62
2022/10/02 03:17:22;;;;;;;15.40;3.38;;;10.20;99.90;;;;;;4986176;28;20053;-63
2022/10/02 03:19:57;;;;;;;13.10;3.78;;;10.20;99.90;;;;;;5003195;28;20054;-62
2022/10/02 03:22:48;;;;;;;12.98;3.35;;;10.40;99.90;;;;;;5003428;28;20050;-62
2022/10/02 03:25:30;;;;;;;11.02;3.53;;;10.30;99.90;;;;;;5004393;28;20393;-62
2022/10/02 03:28:05;;;;;;;19.15;4.28;;;10.30;99.90;;;;;;5004162;28;20564;-63
2022/10/02 03:30:34;;;;;;;9.73;3.40;;;10.50;99.90;;;;;;5004299;28;20042;-66
2022/10/02 03:33:02;;;;;;;15.73;4.10;;;10.40;99.90;;;;;;5004076;28;20046;-63
2022/10/02 03:35:29;;;;;;;15.13;3.55;;;10.40;99.90;;;;;;5002276;28;20070;-61
2022/10/02 03:37:59;;;;;;;16.95;3.75;;;10.60;99.90;;;;;;5002498;28;20147;-62
2022/10/02 03:40:26;;;;;;;19.13;3.72;;;10.50;99.90;;;;;;5003625;28;20038;-63
2022/10/02 03:42:57;;;;;;;14.52;3.65;;;10.40;99.90;;;;;;5003514;28;20061;-60
2022/10/02 03:45:23;;;;;;;15.07;3.40;;;10.70;99.90;;;;;;5005509;28;20050;-62
2022/10/02 03:47:49;;;;;;;12.77;3.63;;;10.70;99.90;;;;;;5007062;28;20576;-63
2022/10/02 03:50:15;;;;;;;16.08;4.00;;;10.70;99.90;;;;;;5007296;28;20129;-62
2022/10/02 03:52:41;;;;;;;16.63;3.35;;;10.80;99.90;;;;;;5006423;28;20085;-63
2022/10/02 03:55:34;;;;;;;13.13;2.92;;;10.90;99.90;;;;;;5007056;28;20439;-62
2022/10/02 03:58:07;;;;;;;14.38;3.58;;;10.80;99.90;;;;;;5007015;28;20686;-63
2022/10/02 04:00:37;;;;;;;14.27;3.33;;;11.00;99.90;;;;;;5008203;28;20652;-62
2022/10/02 04:03:10;;;;;;;17.63;3.30;;;11.00;99.90;;;;;;5007619;28;20073;-61
2022/10/02 04:05:52;;;;;;;13.48;3.38;;;11.00;99.90;;;;;;4992451;28;20132;-62
2022/10/02 04:08:19;;;;;;;15.02;3.90;;;11.00;99.90;;;;;;5013197;28;20077;-63
2022/10/02 04:10:53;;;;;;;20.17;3.28;;;11.10;99.90;;;;;;5006879;28;20046;-62
2022/10/02 04:13:28;;;;;;;14.80;3.28;;;11.10;99.90;;;;;;5007552;28;20121;-63
2022/10/02 04:16:23;;;;;;;14.68;3.65;;;11.10;99.90;;;;;;5006679;28;20451;-63
2022/10/02 04:19:08;;;;;;;14.80;3.15;;;11.10;99.90;;;;;;5002793;28;20069;-63
2022/10/02 04:22:15;;;;;;;14.23;3.33;;;11.20;99.90;;;;;;5006958;28;20042;-62
2022/10/02 04:24:48;;;;;;;18.05;3.35;;;11.00;99.90;;;;;;5006860;28;20050;-61
2022/10/02 04:27:35;;;;;;;17.90;3.75;;;11.00;99.90;;;;;;5005973;28;20492;-63
2022/10/02 04:30:08;;;;;;;15.93;2.95;;;11.10;99.90;;;;;;5006684;28;20048;-63
2022/10/02 04:32:35;;;;;;;14.52;3.15;;;11.00;99.90;;;;;;5007194;28;20052;-62
2022/10/02 04:35:12;;;;;;;17.02;3.03;;;11.10;99.90;;;;;;5006733;28;20484;-63
2022/10/02 04:38:15;;;;;;;12.93;3.17;;;11.00;99.90;;;;;;5006426;28;20085;-63
2022/10/02 04:41:10;;;;;;;12.82;3.10;;;11.00;99.90;;;;;;5006516;28;20125;-63
2022/10/02 04:44:07;;;;;;;17.13;3.38;;;11.20;99.90;;;;;;4989126;28;20058;-63
2022/10/02 04:47:08;;;;;;;11.43;3.22;;;11.10;99.90;;;;;;5002903;28;20516;-62
2022/10/02 04:49:55;;;;;;;13.77;3.25;;;11.10;99.90;;;;;;4976609;28;20046;-63
2022/10/02 04:52:54;;;;;;;18.27;3.72;;;11.00;99.90;;;;;;5005856;28;20046;-63
2022/10/02 04:55:39;;;;;;;14.10;3.33;;;11.00;99.90;;;;;;5005146;28;20396;-62
2022/10/02 04:58:33;;;;;;;14.82;3.33;;;10.90;99.90;;;;;;5005652;28;20103;-62
2022/10/02 05:01:26;;;;;;;16.30;3.53;;;10.90;99.90;;;;;;5006590;28;20089;-61
2022/10/02 05:04:17;;;;;;;17.67;3.63;;;11.10;99.90;;;;;;5006175;28;20069;-60
2022/10/02 05:07:04;;;;;;;13.10;3.42;;;11.00;99.90;;;;;;5016263;28;20446;-61
2022/10/02 05:09:44;;;;;;;12.63;3.30;;;11.10;99.90;;;;;;5006527;28;21218;-63
2022/10/02 05:12:52;;;;;;;17.48;3.35;;;11.00;99.90;;;;;;5005476;28;20092;-62
2022/10/02 05:15:46;;;;;;;18.95;3.20;;;11.20;99.90;;;;;;5004427;28;20044;-61
2022/10/02 05:18:39;;;;;;;16.73;3.35;;;11.10;99.90;;;;;;5005952;28;20056;-63
2022/10/02 05:21:20;;;;;;;13.60;2.92;;;11.20;99.90;;;;;;5005804;28;20050;-63
2022/10/02 05:23:56;;;;;;;15.65;2.67;;;11.10;99.90;;;;;;5004597;28;20798;-62
2022/10/02 05:26:34;;;;;;;16.55;3.03;;;11.10;99.90;;;;;;5005923;28;20396;-59
2022/10/02 05:29:18;;;;;;;14.68;2.88;;;11.30;99.90;;;;;;5005024;28;20456;-63
2022/10/02 05:31:59;;;;;;;15.10;2.58;;;11.20;99.90;;;;;;5006003;28;20088;-61
2022/10/02 05:34:49;;;;;;;11.40;2.70;;;11.20;99.90;;;;;;5004884;28;20049;-63
2022/10/02 05:37:24;;;;;;;20.23;3.88;;;11.30;99.90;;;;;;5004460;28;20038;-63
2022/10/02 05:39:53;;;;;;;13.20;2.72;;;11.20;99.90;;;;;;5005128;28;20038;-63
2022/10/02 05:42:26;;;;;;;20.60;3.28;;;11.00;99.90;;;;;;5005703;28;20084;-62
2022/10/02 05:45:10;;;;;;;15.80;3.25;;;11.20;99.90;;;;;;4988052;28;20045;-63
2022/10/02 05:47:43;;;;;;;12.40;3.05;;;11.10;99.90;;;;;;5004581;28;20058;-63
2022/10/02 05:50:15;;;;;;;11.48;2.58;;;11.00;99.90;;;;;;5006640;28;20481;-62
2022/10/02 05:53:00;;;;;;;16.23;2.88;;;11.10;99.90;;;;;;5004863;28;20392;-62
2022/10/02 05:56:06;;;;;;;15.23;2.97;;;11.00;99.90;;;;;;5005484;28;20045;-62
2022/10/02 05:58:38;;;;;;;13.50;2.88;;;11.10;99.90;;;;;;4965124;28;20072;-63
2022/10/02 06:01:16;;;;;;;17.95;3.22;;;10.90;99.90;;;;;;5004483;28;20038;-61
2022/10/02 06:04:15;;;;;;;14.07;2.80;;;11.10;99.90;;;;;;5005109;28;20045;-62
2022/10/02 06:06:47;;;;;;;16.85;3.10;;;10.90;99.90;;;;;;4999424;28;20100;-62
2022/10/02 06:09:27;;;;;;;20.83;3.30;;;11.10;99.90;;;;;;5005429;28;20030;-62
2022/10/02 06:12:06;;;;;;;20.88;3.40;;;10.90;99.90;;;;;;5004856;28;20044;-62
2022/10/02 06:14:35;;;;;;;12.73;2.45;;;10.90;99.90;;;;;;5004720;28;20057;-63
2022/10/02 06:17:06;;;;;;;10.45;2.47;;;11.10;99.90;;;;;;5004515;28;20600;-62
2022/10/02 06:19:57;;;;;;;16.70;2.83;;;11.00;99.90;;;;;;5004534;28;20054;-62
2022/10/02 06:22:31;;;;;;;19.02;3.60;;;10.90;99.90;;;;;;5003298;28;20041;-62
2022/10/02 06:25:12;;;;;;;16.02;3.10;;;11.20;99.90;;;;;;5004108;28;20042;-61
2022/10/02 06:28:16;;;;;;;15.57;2.97;;;11.10;99.90;;;;;;5003352;28;20037;-64
2022/10/02 06:31:11;;;;;;;14.80;3.15;;;11.20;99.90;;;;;;4979507;28;20050;-62
2022/10/02 06:33:37;;;;;;;13.95;2.92;;;11.20;99.90;;;;;;4999596;28;20616;-63
2022/10/02 06:36:20;;;;;;;20.90;4.22;;;11.00;99.90;;;;;;5003236;28;20046;-62
2022/10/02 06:39:23;;;;;;;13.57;2.53;;;11.20;99.90;;;;;;5002872;28;20058;-62
2022/10/02 06:42:12;;;;;;;19.65;3.65;;;11.20;99.90;;;;;;5004394;28;20044;-62
2022/10/02 06:44:50;;;;;;;17.52;3.25;;;11.20;99.90;;;;;;5004723;28;20046;-61
2022/10/02 06:47:24;;;;;;;20.25;3.33;;;11.40;99.90;;;;;;5004687;28;20042;-63
2022/10/02 06:50:09;;;;;;;17.35;3.28;;;11.20;99.90;;;;;;5003787;28;20045;-63
2022/10/02 06:52:51;;;;;;;18.08;3.38;;;11.30;99.90;;;;;;5003426;28;20085;-62
2022/10/02 06:55:30;;;;;;;18.58;3.30;;;11.30;99.90;;;;;;4986451;28;20046;-64
2022/10/02 06:58:21;;;;;;;17.20;3.38;;;11.50;99.90;;;;;;5003859;28;20054;-60
2022/10/02 07:00:58;;;;;;;23.63;4.85;;;11.60;99.90;;;;;;5003989;28;20404;-59
2022/10/02 07:03:39;;;;;;;17.55;4.15;;;11.50;99.90;;;;;;5003697;28;20042;-61
2022/10/02 07:06:23;;;;;;;24.08;4.43;;;11.60;99.90;;;;;;5010710;28;20065;-63
2022/10/02 07:09:05;;;;;;;18.25;3.55;;;11.80;99.90;;;;;;5005467;28;20121;-62
2022/10/02 07:12:19;;;;;;;20.98;3.33;;;11.80;99.90;;;;;;5002866;28;20081;-63
2022/10/02 07:14:54;;;;;;;16.33;3.92;;;12.00;99.90;;;;;;5004380;28;20045;-61
2022/10/02 07:17:37;;;;;;;16.13;3.13;;;12.10;99.90;;;;;;5003200;28;20129;-60
2022/10/02 07:20:22;;;;;;;14.52;3.35;;;12.30;99.90;;;;;;5003581;28;20065;-62
2022/10/02 07:23:25;;;;;;;13.93;2.88;;;12.40;99.90;;;;;;5003191;28;20286;-63
2022/10/02 07:26:01;;;;;;;13.30;2.67;;;12.60;99.90;;;;;;4989679;28;20053;-61
2022/10/02 07:28:41;;;;;;;12.63;3.00;;;12.70;99.90;;;;;;4985808;28;20117;-62
2022/10/02 07:31:31;;;;;;;12.63;2.78;;;12.60;99.90;;;;;;5003173;28;20105;-62
2022/10/02 07:34:06;;;;;;;13.80;2.78;;;12.60;99.90;;;;;;5004221;28;20582;-63
2022/10/02 07:36:44;;;;;;;16.50;2.95;;;12.50;99.90;;;;;;5002570;28;20076;-62
2022/10/02 07:39:37;;;;;;;15.95;3.20;;;12.40;99.90;;;;;;5003442;28;20057;-63
2022/10/02 07:42:17;;;;;;;17.92;3.10;;;12.40;99.90;;;;;;5003595;28;20042;-61
2022/10/02 07:44:56;;;;;;;14.10;2.80;;;12.40;99.90;;;;;;4985797;28;20053;-63
2022/10/02 07:47:55;;;;;;;14.45;3.00;;;12.40;99.90;;;;;;5003747;28;20089;-63
2022/10/02 07:50:54;;;;;;;14.05;3.22;;;12.30;99.90;;;;;;5002810;28;20049;-63
2022/10/02 07:53:29;;;;;;;18.85;3.60;;;12.30;99.90;;;;;;5002226;28;20448;-62
2022/10/02 07:55:56;;;;;;;14.90;2.92;;;12.40;99.90;;;;;;5003569;28;20125;-62
2022/10/02 07:58:40;;;;;;;24.08;3.65;;;12.40;99.90;;;;;;5002887;28;20046;-63
2022/10/02 08:01:37;;;;;;;16.58;3.13;;;12.50;99.90;;;;;;4985961;28;20484;-62
2022/10/02 08:04:23;;;;;;;14.88;2.92;;;12.40;99.90;;;;;;4986731;28;20097;-63
2022/10/02 08:06:56;;;;;;;12.98;2.45;;;12.60;99.90;;;;;;5013745;28;20049;-61
2022/10/02 08:09:35;;;;;;;12.48;2.47;;;12.50;99.90;;;;;;5002384;28;20455;-61
2022/10/02 08:12:28;;;;;;;15.90;2.75;;;12.60;99.90;;;;;;5002923;28;20468;-63
2022/10/02 08:14:55;;;;;;;14.80;3.15;;;12.70;99.90;;;;;;5003756;28;20042;-63
2022/10/02 08:17:31;;;;;;;16.77;2.75;;;12.90;99.90;;;;;;5003319;28;20038;-62
2022/10/02 08:20:12;;;;;;;14.63;3.05;;;13.10;99.90;;;;;;5002462;28;20996;-63
2022/10/02 08:22:46;;;;;;;13.23;2.67;;;13.00;99.90;;;;;;5002350;28;20057;-62
2022/10/02 08:25:15;;;;;;;;;;;13.10;99.90;;;;;;5003353;28;20215;-63
2022/10/02 08:28:04;;;;;;;14.95;2.63;;;13.00;99.90;;;;;;5002971;28;19925;-63
2022/10/02 08:30:30;;;;;;;15.70;2.53;;;13.10;99.90;;;;;;5002237;28;20042;-63
2022/10/02 08:32:56;;;;;;;14.60;2.67;;;13.20;99.90;;;;;;4987674;28;20048;-61
2022/10/02 08:35:36;;;;;;;15.20;2.72;;;13.20;99.90;;;;;;5006885;28;20041;-63
2022/10/02 08:38:23;;;;;;;8.10;2.75;;;13.20;99.90;;;;;;5005778;28;20095;-62
2022/10/02 08:41:28;;;;;;;13.05;3.20;;;13.20;99.90;;;;;;5007763;28;20440;-63
2022/10/02 08:43:56;;;;;;;12.25;2.35;;;13.20;99.90;;;;;;5006943;28;20049;-64
2022/10/02 08:46:46;;;;;;;14.13;2.90;;;13.20;99.90;;;;;;5005992;28;20401;-62
2022/10/02 08:49:39;;;;;;;15.63;2.85;;;13.20;99.90;;;;;;5006007;28;20045;-59
2022/10/02 08:52:05;;;;;;;10.07;2.58;;;13.30;99.90;;;;;;5005721;28;20779;-63
2022/10/02 08:55:00;;;;;;;9.55;2.25;;;13.30;99.90;;;;;;5006004;28;20049;-62
2022/10/02 08:57:25;;;;;;;10.90;2.40;;;13.50;99.90;;;;;;5006469;28;20050;-60
2022/10/02 09:00:06;;;;;;;12.90;2.60;;;13.50;99.90;;;;;;5006758;28;20050;-63
2022/10/02 09:03:23;;;;;;;7.95;2.05;;;13.60;99.90;;;;;;5006349;28;20060;-62
2022/10/02 09:06:13;;;;;;;10.32;2.92;;;13.50;99.90;;;;;;4936079;29;20387;-62
2022/10/02 09:09:01;;;;;;;8.00;2.50;;;13.50;99.90;;;;;;5005722;28;20392;-63
2022/10/02 09:11:51;;;;;;;14.77;2.60;;;13.50;99.90;;;;;;5006084;28;20062;-63
2022/10/02 09:14:47;;;;;;;7.57;2.00;;;14.30;99.90;;;;;;5005709;28;20092;-63
2022/10/02 09:17:22;;;;;;;10.38;2.50;;;14.30;99.90;;;;;;5005993;28;20042;-62
2022/10/02 09:20:12;;;;;;;9.23;1.92;;;14.00;99.90;;;;;;5006100;28;20049;-63
2022/10/02 09:23:06;;;;;;;9.55;2.30;;;13.80;99.90;;;;;;5004660;28;20057;-63
2022/10/02 09:25:36;;;;;;;8.77;2.28;;;13.80;99.90;;;;;;5006079;28;20052;-61
2022/10/02 09:28:41;;;;;;;10.05;2.60;;;13.70;99.90;;;;;;5005953;28;20164;-63
2022/10/02 09:31:25;;;;;;;10.20;2.83;;;13.80;99.90;;;;;;4990491;28;20524;-63
2022/10/02 09:34:04;;;;;;;8.57;2.40;;;13.70;99.90;;;;;;5005996;28;20820;-63
2022/10/02 09:37:03;;;;;;;11.05;2.22;;;13.70;99.90;;;;;;4987595;28;20108;-61
2022/10/02 09:40:07;;;;;;;11.18;2.17;;;13.60;99.90;;;;;;5005163;28;20053;-61
2022/10/02 09:43:04;;;;;;;10.55;2.40;;;13.50;99.90;;;;;;5005111;28;20554;-62
2022/10/02 09:45:50;;;;;;;8.70;1.95;;;13.50;99.90;;;;;;5005805;28;20108;-59
2022/10/02 09:48:30;;;;;;;10.23;2.40;;;13.50;99.90;;;;;;5005690;28;20042;-63
2022/10/02 09:51:15;;;;;;;10.20;2.55;;;13.50;99.90;;;;;;5004557;28;20464;-63
2022/10/02 09:54:02;;;;;;;12.43;2.77;;;13.60;99.90;;;;;;5005500;28;20046;-61
2022/10/02 09:57:05;;;;;;;11.02;2.90;;;13.60;99.90;;;;;;5004851;28;20045;-63
2022/10/02 09:59:39;;;;;;;10.95;2.35;;;13.80;99.90;;;;;;5005133;28;20053;-63
2022/10/02 10:02:34;;;;;;;8.93;2.67;;;13.80;99.90;;;;;;5004795;28;20053;-63
2022/10/02 10:05:31;;;;;;;9.80;2.40;;;14.10;99.90;;;;;;5006343;28;20404;-61
2022/10/02 10:08:23;;;;;;;10.65;2.70;;;14.80;99.90;;;;;;5012900;28;20050;-62
2022/10/02 10:11:11;;;;;;;9.10;2.13;;;15.50;99.90;;;;;;4986947;28;20456;-61
2022/10/02 10:13:53;;;;;;;7.45;1.90;;;15.90;99.90;;;;;;5004877;28;20053;-61
2022/10/02 10:16:43;;;;;;;8.90;1.95;;;16.30;99.90;;;;;;4987010;28;20050;-62
2022/10/02 10:19:36;;;;;;;11.32;2.33;;;16.20;99.90;;;;;;5004416;28;20054;-63
2022/10/02 10:22:26;;;;;;;14.65;3.15;;;16.70;99.90;;;;;;5003573;28;20073;-63
2022/10/02 10:25:14;;;;;;;8.77;1.88;;;16.80;99.90;;;;;;5004978;28;20042;-63
2022/10/02 10:27:42;;;;;;;9.27;1.90;;;16.90;99.90;;;;;;5005045;28;20034;-62
2022/10/02 10:30:20;;;;;;;7.70;1.92;;;17.00;99.90;;;;;;5005172;28;20090;-61
2022/10/02 10:33:13;;;;;;;12.52;2.30;;;17.30;99.90;;;;;;5004413;28;20048;-63
2022/10/02 10:38:31;;;;;;;11.40;2.85;;;17.80;99.90;;;;;;5003977;28;20133;-62
2022/10/02 10:39:31;;;;;;;10.43;2.22;;;17.70;99.90;;;;;;5003815;28;20046;-62
2022/10/02 10:42:33;;;;;;;9.85;1.67;;;18.10;99.90;;;;;;5004541;28;20041;-64
2022/10/02 10:45:29;;;;;;;13.07;2.42;;;17.70;99.90;;;;;;4991369;28;20053;-62
2022/10/02 10:48:13;;;;;;;12.48;2.38;;;17.60;99.90;;;;;;4987336;28;20054;-63
2022/10/02 10:50:53;;;;;;;12.85;2.55;;;17.90;99.90;;;;;;5003651;28;20445;-61
2022/10/02 10:53:46;;;;;;;12.52;2.42;;;18.20;99.90;;;;;;5004398;28;20563;-63
2022/10/02 10:56:34;;;;;;;11.32;2.33;;;18.30;99.90;;;;;;5004062;28;20041;-63
2022/10/02 10:59:21;;;;;;;13.90;2.72;;;18.50;99.90;;;;;;5003444;28;20116;-62
2022/10/02 11:02:15;;;;;;;11.05;2.42;;;18.70;99.90;;;;;;5004170;28;20060;-63
2022/10/02 11:05:26;;;;;;;12.40;2.63;;;18.00;99.90;;;;;;5004768;28;20045;-62
2022/10/02 11:07:52;;;;;;;11.48;2.65;;;17.70;99.90;;;;;;5012049;28;20048;-63
2022/10/02 11:10:43;;;;;;;8.50;1.73;;;17.50;99.90;;;;;;5003960;28;20724;-62
2022/10/02 11:13:18;;;;;;;15.50;3.00;;;17.20;99.90;;;;;;5003678;28;20046;-62
2022/10/02 11:16:00;;;;;;;14.90;2.72;;;17.00;99.90;;;;;;5003891;28;20108;-63
2022/10/02 11:18:43;;;;;;;14.60;3.08;;;16.80;99.90;;;;;;5003683;28;20042;-62
2022/10/02 11:21:33;;;;;;;12.50;2.60;;;16.60;99.90;;;;;;5002944;28;20104;-62
2022/10/02 11:24:25;;;;;;;11.23;2.42;;;16.40;99.90;;;;;;5003724;28;20180;-62
2022/10/02 11:27:13;;;;;;;10.38;3.00;;;16.20;99.90;;;;;;5003367;28;20061;-62
2022/10/02 11:30:11;;;;;;;15.75;2.83;;;16.60;99.90;;;;;;5003855;28;20104;-62
2022/10/02 11:32:54;;;;;;;16.58;3.20;;;17.20;99.90;;;;;;5003049;28;20112;-63
2022/10/02 11:35:28;;;;;;;14.18;2.58;;;17.70;99.90;;;;;;5003731;28;20416;-63
2022/10/02 11:38:06;;;;;;;9.80;1.90;;;18.00;99.90;;;;;;5002786;28;20048;-63
2022/10/02 11:40:41;;;;;;;12.95;2.47;;;18.00;99.90;;;;;;5003365;28;20056;-63
2022/10/02 11:43:32;;;;;;;15.18;2.13;;;17.60;99.90;;;;;;5003202;28;20081;-62
2022/10/02 11:46:15;;;;;;;11.70;2.08;;;17.50;99.90;;;;;;5003693;28;20050;-63
2022/10/02 11:49:08;;;;;;;11.85;2.20;;;17.30;99.90;;;;;;5003043;28;20637;-62
2022/10/02 11:51:57;;;;;;;9.95;2.13;;;17.70;99.90;;;;;;5002047;28;20073;-63
2022/10/02 11:54:43;;;;;;;10.85;2.30;;;17.90;99.90;;;;;;5003129;28;20053;-62
2022/10/02 11:57:31;;;;;;;10.50;1.92;;;17.90;99.90;;;;;;5003592;28;20038;-61
2022/10/02 12:00:14;;;;;;;10.80;2.45;;;17.90;99.90;;;;;;5004092;28;20136;-63
2022/10/02 12:02:45;;;;;;;9.60;2.00;;;17.80;99.90;;;;;;5003042;28;20113;-63
2022/10/02 12:05:25;;;;;;;6.60;1.80;;;17.80;99.90;;;;;;5005386;28;20056;-61
2022/10/02 12:08:16;;;;;;;14.80;2.28;;;17.80;99.90;;;;;;4996824;28;20503;-62
2022/10/02 12:11:24;;;;;;;10.07;1.90;;;17.80;99.90;;;;;;5006651;28;20056;-64
2022/10/02 12:13:58;;;;;;;9.50;1.67;;;17.90;99.90;;;;;;4969804;28;20093;-62
2022/10/02 12:16:47;;;;;;;11.65;2.10;;;17.70;99.90;;;;;;5006236;28;20052;-62
2022/10/02 12:19:37;;;;;;;11.32;2.03;;;17.90;99.90;;;;;;5006511;28;20050;-64
2022/10/02 12:28:41;;;;;;;9.95;1.80;;;18.10;99.90;;;;;;5006728;28;20042;-62
2022/10/02 12:31:33;;;;;;;10.32;2.25;;;18.20;99.90;;;;;;5006539;28;20103;-63
2022/10/02 12:34:42;;;;;;;9.55;1.88;;;18.10;99.90;;;;;;5006915;28;20670;-62
2022/10/02 12:37:18;;;;;;;7.13;1.65;;;18.30;99.90;;;;;;5006138;28;20042;-62
2022/10/02 12:40:12;;;;;;;11.18;2.53;;;17.90;99.90;;;;;;5006291;28;20121;-63
2022/10/02 12:43:05;;;;;;;10.07;2.28;;;18.10;99.90;;;;;;5006694;28;20054;-63
2022/10/02 12:46:06;;;;;;;9.45;1.90;;;18.00;99.90;;;;;;4989017;28;20038;-62
2022/10/02 12:48:53;;;;;;;8.43;2.33;;;17.90;99.90;;;;;;5006350;28;20412;-61
2022/10/02 12:51:33;;;;;;;10.55;1.83;;;17.90;99.90;;;;;;5005127;28;20053;-62
2022/10/02 12:54:17;;;;;;;9.68;1.90;;;17.80;99.90;;;;;;5006603;28;20125;-63
2022/10/02 12:57:50;;;;;;;10.75;2.30;;;17.60;99.90;;;;;;5005573;28;20145;-62
2022/10/02 13:00:07;;;;;;;9.40;2.08;;;17.30;99.90;;;;;;5005718;28;20410;-62
2022/10/02 13:02:51;;;;;;;9.75;2.00;;;17.20;99.90;;;;;;5007094;28;20104;-62
2022/10/02 13:05:35;;;;;;;10.80;2.42;;;17.00;99.90;;;;;;4990471;28;20057;-62
2022/10/02 13:08:17;;;;;;;13.18;2.25;;;16.80;99.90;;;;;;5017508;28;20128;-62
2022/10/02 13:10:56;;;;;;;9.98;1.80;;;16.80;99.90;;;;;;5025461;28;20492;-63
2022/10/02 13:13:30;;;;;;;9.98;2.13;;;17.20;99.90;;;;;;5026114;28;20037;-63
2022/10/02 13:16:27;;;;;;;11.15;2.08;;;17.40;99.90;;;;;;5025361;28;20353;-63
2022/10/02 13:18:59;;;;;;;10.75;2.10;;;17.50;99.90;;;;;;5008438;28;20083;-62
2022/10/02 13:21:37;;;;;;;11.75;2.45;;;17.50;99.90;;;;;;5025107;28;20049;-62
2022/10/02 13:24:18;;;;;;;10.65;2.50;;;17.70;99.90;;;;;;5025639;28;20087;-62
2022/10/02 13:27:05;;;;;;;9.25;1.83;;;17.70;99.90;;;;;;5025647;28;20439;-63
2022/10/02 13:29:49;;;;;;;12.55;2.25;;;17.40;99.90;;;;;;5007833;28;20052;-62
2022/10/02 13:32:44;;;;;;;14.43;2.42;;;17.40;99.90;;;;;;5025284;28;20679;-63
2022/10/02 13:35:31;;;;;;;10.73;2.55;;;17.30;99.90;;;;;;5024565;28;20069;-63
2022/10/02 13:38:24;;;;;;;10.50;2.10;;;17.10;99.90;;;;;;5025395;28;20490;-62
2022/10/02 13:41:04;;;;;;;15.35;2.35;;;16.70;99.90;;;;;;5025323;28;20103;-62
2022/10/02 13:43:52;;;;;;;13.25;2.45;;;16.80;99.90;;;;;;5006958;28;20512;-63
2022/10/02 13:46:40;;;;;;;11.73;2.15;;;16.80;99.90;;;;;;5025848;28;20041;-62
2022/10/02 13:49:27;;;;;;;14.13;3.05;;;16.80;99.90;;;;;;5025658;28;20041;-62
2022/10/02 13:52:09;;;;;;;11.63;2.58;;;16.70;99.90;;;;;;5023802;28;20511;-62
2022/10/02 13:55:17;;;;;;;10.23;2.30;;;16.60;99.90;;;;;;5025617;28;20136;-62
2022/10/02 13:58:10;;;;;;;13.20;2.53;;;16.50;99.90;;;;;;5025432;28;20041;-62
2022/10/02 14:00:36;;;;;;;15.32;2.67;;;16.20;99.90;;;;;;5025387;28;20140;-62
2022/10/02 14:03:17;;;;;;;11.02;2.22;;;16.00;99.90;;;;;;5024570;28;20076;-62
2022/10/02 14:06:05;;;;;;;10.98;2.38;;;15.90;99.90;;;;;;5017431;28;20065;-62